createdAt,value
2022-08-22T00:01:14.229Z,15.5
2022-08-22T00:02:30.519Z,15.5
2022-08-22T00:03:46.828Z,15.5
2022-08-22T00:05:03.109Z,15.5
2022-08-22T00:06:19.415Z,15.4
2022-08-22T00:07:35.715Z,15.4
2022-08-22T00:08:51.991Z,15.4
2022-08-22T00:10:07.313Z,15.3
2022-08-22T00:11:23.602Z,15.3
2022-08-22T00:12:38.921Z,15.3
2022-08-22T00:13:55.204Z,15.3
2022-08-22T00:15:11.502Z,15.3
2022-08-22T00:16:27.813Z,15.3
2022-08-22T00:19:00.388Z,15.2
2022-08-22T00:20:16.692Z,15.2
2022-08-22T00:21:32.979Z,15.1
2022-08-22T00:22:49.272Z,15.1
2022-08-22T00:24:05.572Z,15.1
2022-08-22T00:25:21.857Z,15.1
2022-08-22T00:26:38.149Z,15
2022-08-22T00:27:54.448Z,15
2022-08-22T00:29:09.756Z,15
2022-08-22T00:30:26.058Z,14.9
2022-08-22T00:31:42.352Z,14.9
2022-08-22T00:32:58.638Z,14.9
2022-08-22T00:34:14.933Z,14.8
2022-08-22T00:35:31.235Z,14.7
2022-08-22T00:36:47.532Z,14.7
2022-08-22T00:38:02.846Z,14.7
2022-08-22T00:39:18.149Z,14.7
2022-08-22T00:41:50.744Z,14.7
2022-08-22T00:43:07.040Z,14.8
2022-08-22T00:44:23.317Z,14.7
2022-08-22T00:45:39.619Z,14.7
2022-08-22T00:46:55.906Z,14.7
2022-08-22T00:48:12.203Z,14.7
2022-08-22T00:49:28.514Z,14.7
2022-08-22T00:50:44.808Z,14.7
2022-08-22T00:52:01.084Z,14.7
2022-08-22T00:53:17.394Z,14.6
2022-08-22T00:54:33.690Z,14.6
2022-08-22T00:57:05.284Z,14.6
2022-08-22T00:58:21.580Z,14.5
2022-08-22T00:59:36.895Z,14.5
2022-08-22T01:00:52.200Z,14.5
2022-08-22T01:02:08.501Z,14.5
2022-08-22T01:03:24.789Z,14.5
2022-08-22T01:04:41.080Z,14.5
2022-08-22T01:05:57.390Z,14.5
2022-08-22T01:07:13.683Z,14.4
2022-08-22T01:08:29.977Z,14.5
2022-08-22T01:09:46.260Z,14.4
2022-08-22T01:11:02.555Z,14.5
2022-08-22T01:12:18.846Z,14.4
2022-08-22T01:13:34.166Z,14.4
2022-08-22T01:14:49.488Z,14.4
2022-08-22T01:16:05.782Z,14.4
2022-08-22T01:17:22.063Z,14.3
2022-08-22T01:18:38.351Z,14.3
2022-08-22T01:19:54.654Z,14.3
2022-08-22T01:21:10.940Z,14.2
2022-08-22T01:23:43.528Z,14.2
2022-08-22T01:24:59.840Z,14.2
2022-08-22T01:26:16.117Z,14.2
2022-08-22T01:27:32.423Z,14.2
2022-08-22T01:28:48.709Z,14.1
2022-08-22T01:30:05.001Z,14.2
2022-08-22T01:31:20.322Z,14.1
2022-08-22T01:32:36.610Z,14.1
2022-08-22T01:33:52.901Z,14
2022-08-22T01:35:09.201Z,14
2022-08-22T01:36:25.500Z,13.9
2022-08-22T01:37:41.794Z,13.9
2022-08-22T01:38:58.085Z,13.9
2022-08-22T01:40:14.384Z,13.8
2022-08-22T01:41:30.671Z,13.9
2022-08-22T01:42:46.965Z,13.8
2022-08-22T01:44:03.260Z,13.8
2022-08-22T01:45:19.557Z,13.8
2022-08-22T01:46:35.850Z,13.9
2022-08-22T01:47:51.153Z,13.9
2022-08-22T01:50:23.746Z,13.9
2022-08-22T01:51:40.043Z,14
2022-08-22T01:52:56.338Z,14
2022-08-22T01:54:12.634Z,14
2022-08-22T01:55:28.919Z,14
2022-08-22T01:56:45.213Z,13.9
2022-08-22T01:58:01.501Z,13.9
2022-08-22T01:59:17.797Z,13.9
2022-08-22T02:00:34.105Z,13.9
2022-08-22T02:01:50.392Z,13.9
2022-08-22T02:03:06.692Z,13.9
2022-08-22T02:05:38.297Z,13.8
2022-08-22T02:06:53.602Z,13.9
2022-08-22T02:08:09.898Z,13.9
2022-08-22T02:09:26.200Z,13.9
2022-08-22T02:10:42.500Z,13.8
2022-08-22T02:13:15.086Z,13.8
2022-08-22T02:14:31.380Z,13.8
2022-08-22T02:15:46.703Z,13.8
2022-08-22T02:17:02.005Z,13.8
2022-08-22T02:18:18.293Z,13.8
2022-08-22T02:19:34.595Z,13.7
2022-08-22T02:20:50.886Z,13.8
2022-08-22T02:22:07.178Z,13.7
2022-08-22T02:23:23.482Z,13.7
2022-08-22T02:25:56.063Z,13.7
2022-08-22T02:27:12.000Z,13.6
2022-08-22T02:28:28.661Z,13.6
2022-08-22T02:29:44.954Z,13.6
2022-08-22T02:31:01.246Z,13.5
2022-08-22T02:32:17.528Z,13.5
2022-08-22T02:33:32.833Z,13.5
2022-08-22T02:34:49.148Z,13.4
2022-08-22T02:36:05.434Z,13.4
2022-08-22T02:37:21.727Z,13.4
2022-08-22T02:38:38.029Z,13.3
2022-08-22T02:39:54.315Z,13.3
2022-08-22T02:41:10.601Z,13.3
2022-08-22T02:42:26.896Z,13.3
2022-08-22T02:43:42.212Z,13.3
2022-08-22T02:44:57.529Z,13.3
2022-08-22T02:46:13.833Z,13.3
2022-08-22T02:47:30.121Z,13.3
2022-08-22T02:48:46.408Z,13.3
2022-08-22T02:50:02.712Z,13.3
2022-08-22T02:51:18.989Z,13.3
2022-08-22T02:52:35.294Z,13.3
2022-08-22T02:53:51.580Z,13.3
2022-08-22T02:55:07.880Z,13.3
2022-08-22T02:56:24.170Z,13.4
2022-08-22T02:57:40.473Z,13.4
2022-08-22T02:58:56.769Z,13.3
2022-08-22T03:00:13.061Z,13.3
2022-08-22T03:01:28.359Z,13.3
2022-08-22T03:02:44.661Z,13.3
2022-08-22T03:04:00.953Z,13.3
2022-08-22T03:05:17.246Z,13.3
2022-08-22T03:06:33.539Z,13.2
2022-08-22T03:07:49.829Z,13.2
2022-08-22T03:09:06.129Z,13.2
2022-08-22T03:10:22.423Z,13.2
2022-08-22T03:11:38.715Z,13.2
2022-08-22T03:12:55.005Z,13.3
2022-08-22T03:14:11.301Z,13.3
2022-08-22T03:15:27.604Z,13.2
2022-08-22T03:18:00.180Z,13.2
2022-08-22T03:19:15.490Z,13.2
2022-08-22T03:20:31.792Z,13.2
2022-08-22T03:21:48.091Z,13.2
2022-08-22T03:23:04.387Z,13.2
2022-08-22T03:24:20.687Z,13.2
2022-08-22T03:25:36.981Z,13.2
2022-08-22T03:26:53.260Z,13.2
2022-08-22T03:29:25.810Z,13.2
2022-08-22T03:30:42.095Z,13.2
2022-08-22T03:31:58.345Z,13.2
2022-08-22T03:33:14.590Z,13.1
2022-08-22T03:34:30.823Z,13.2
2022-08-22T03:35:46.083Z,13.2
2022-08-22T03:37:02.319Z,13.1
2022-08-22T03:38:18.570Z,13.1
2022-08-22T03:39:34.806Z,13.2
2022-08-22T03:40:51.032Z,13.1
2022-08-22T03:42:07.281Z,13.1
2022-08-22T03:43:23.522Z,13
2022-08-22T03:44:39.756Z,13.1
2022-08-22T03:45:55.997Z,13.1
2022-08-22T03:47:12.233Z,13.1
2022-08-22T03:48:28.489Z,13
2022-08-22T03:49:44.726Z,13
2022-08-22T03:51:00.960Z,13
2022-08-22T03:52:16.225Z,13
2022-08-22T03:53:32.457Z,12.9
2022-08-22T03:54:48.691Z,12.9
2022-08-22T03:56:04.933Z,12.9
2022-08-22T03:57:21.178Z,12.9
2022-08-22T03:58:37.415Z,12.9
2022-08-22T03:59:53.654Z,12.9
2022-08-22T04:01:09.902Z,12.9
2022-08-22T04:02:26.135Z,13
2022-08-22T04:03:42.376Z,13
2022-08-22T04:04:58.621Z,12.9
2022-08-22T04:06:14.851Z,13
2022-08-22T04:07:31.098Z,13
2022-08-22T04:08:47.332Z,13
2022-08-22T04:10:02.600Z,13
2022-08-22T04:11:18.840Z,13
2022-08-22T04:15:07.549Z,12.9
2022-08-22T04:16:23.799Z,12.9
2022-08-22T04:17:40.044Z,13
2022-08-22T04:18:56.281Z,13
2022-08-22T04:21:28.755Z,12.9
2022-08-22T04:22:44.028Z,12.9
2022-08-22T04:24:00.262Z,12.9
2022-08-22T04:25:15.518Z,12.8
2022-08-22T04:26:31.749Z,12.8
2022-08-22T04:27:47.998Z,12.8
2022-08-22T04:30:20.486Z,12.8
2022-08-22T04:34:09.197Z,12.8
2022-08-22T04:35:25.446Z,12.8
2022-08-22T04:36:41.687Z,12.8
2022-08-22T04:37:57.926Z,12.8
2022-08-22T04:39:14.151Z,12.8
2022-08-22T04:40:29.417Z,12.8
2022-08-22T04:41:44.674Z,12.8
2022-08-22T04:43:00.909Z,12.8
2022-08-22T04:44:17.168Z,12.8
2022-08-22T04:46:49.630Z,12.9
2022-08-22T04:48:05.878Z,13
2022-08-22T04:49:22.126Z,13
2022-08-22T04:50:38.365Z,13
2022-08-22T04:51:54.599Z,13
2022-08-22T04:53:10.844Z,13
2022-08-22T04:55:43.316Z,13
2022-08-22T04:56:59.554Z,13.1
2022-08-22T04:58:14.827Z,13.1
2022-08-22T04:59:31.061Z,13.1
2022-08-22T05:00:47.291Z,13.1
2022-08-22T05:02:03.532Z,13.2
2022-08-22T05:03:19.769Z,13.2
2022-08-22T05:04:36.011Z,13.2
2022-08-22T05:05:52.248Z,13.2
2022-08-22T05:07:08.490Z,13.2
2022-08-22T05:08:24.731Z,13.3
2022-08-22T05:09:40.989Z,13.3
2022-08-22T05:10:57.212Z,13.4
2022-08-22T05:12:13.464Z,13.4
2022-08-22T05:13:28.713Z,13.4
2022-08-22T05:16:00.212Z,13.4
2022-08-22T05:17:16.462Z,13.4
2022-08-22T05:18:32.689Z,13.4
2022-08-22T05:19:48.936Z,13.5
2022-08-22T05:21:05.177Z,13.5
2022-08-22T05:22:21.419Z,13.5
2022-08-22T05:23:37.651Z,13.5
2022-08-22T05:24:53.892Z,13.5
2022-08-22T05:26:10.130Z,13.6
2022-08-22T05:27:26.369Z,13.6
2022-08-22T05:28:41.642Z,13.6
2022-08-22T05:31:13.129Z,13.7
2022-08-22T05:32:29.372Z,13.7
2022-08-22T05:33:45.623Z,13.7
2022-08-22T05:35:01.858Z,13.8
2022-08-22T05:36:18.105Z,13.8
2022-08-22T05:37:34.342Z,13.8
2022-08-22T05:38:50.581Z,13.8
2022-08-22T05:40:06.815Z,13.8
2022-08-22T05:41:23.052Z,13.8
2022-08-22T05:42:39.304Z,13.8
2022-08-22T05:43:55.536Z,13.9
2022-08-22T05:46:28.026Z,13.9
2022-08-22T05:47:43.263Z,14
2022-08-22T05:48:59.516Z,14
2022-08-22T05:50:15.755Z,14
2022-08-22T05:51:32.001Z,14
2022-08-22T05:54:04.464Z,14.1
2022-08-22T05:55:19.746Z,14.2
2022-08-22T05:56:35.985Z,14.2
2022-08-22T05:57:51.224Z,14.2
2022-08-22T05:59:07.471Z,14.2
2022-08-22T06:00:23.715Z,14.3
2022-08-22T06:01:39.948Z,14.3
2022-08-22T06:04:12.435Z,14.3
2022-08-22T06:05:28.678Z,14.3
2022-08-22T06:06:44.912Z,14.5
2022-08-22T06:09:17.403Z,14.5
2022-08-22T06:10:33.628Z,14.5
2022-08-22T06:11:48.894Z,14.5
2022-08-22T06:13:04.158Z,14.6
2022-08-22T06:14:20.389Z,14.6
2022-08-22T06:16:52.866Z,14.7
2022-08-22T06:18:09.120Z,14.8
2022-08-22T06:19:25.353Z,14.8
2022-08-22T06:20:41.582Z,14.8
2022-08-22T06:21:56.854Z,14.8
2022-08-22T06:23:13.095Z,14.9
2022-08-22T06:24:29.331Z,14.9
2022-08-22T06:25:45.575Z,14.9
2022-08-22T06:27:01.819Z,15
2022-08-22T06:28:18.044Z,15.1
2022-08-22T06:29:34.302Z,15.1
2022-08-22T06:32:06.764Z,15.3
2022-08-22T06:33:23.015Z,15.3
2022-08-22T06:34:39.257Z,15.4
2022-08-22T06:35:55.490Z,15.5
2022-08-22T06:37:11.726Z,15.5
2022-08-22T06:38:26.983Z,15.6
2022-08-22T06:39:43.235Z,15.7
2022-08-22T06:40:59.468Z,15.8
2022-08-22T06:42:15.722Z,15.8
2022-08-22T06:43:30.981Z,15.9
2022-08-22T06:44:46.220Z,15.9
2022-08-22T06:46:02.471Z,16
2022-08-22T06:47:18.704Z,16.1
2022-08-22T06:48:34.959Z,16.1
2022-08-22T06:49:51.188Z,16.1
2022-08-22T06:51:07.437Z,16.2
2022-08-22T06:52:23.669Z,16.2
2022-08-22T06:53:39.915Z,16.3
2022-08-22T06:54:56.152Z,16.3
2022-08-22T06:56:12.397Z,16.4
2022-08-22T06:57:27.649Z,16.4
2022-08-22T06:58:42.915Z,16.5
2022-08-22T06:59:59.157Z,16.6
2022-08-22T07:01:15.391Z,16.6
2022-08-22T07:02:31.636Z,16.7
2022-08-22T07:03:47.868Z,16.7
2022-08-22T07:05:04.101Z,16.8
2022-08-22T07:06:20.347Z,16.9
2022-08-22T07:07:36.589Z,16.9
2022-08-22T07:10:09.077Z,17.1
2022-08-22T07:11:25.320Z,17.1
2022-08-22T07:12:41.556Z,17.2
2022-08-22T07:13:57.792Z,17.2
2022-08-22T07:15:13.052Z,17.3
2022-08-22T07:16:29.283Z,17.4
2022-08-22T07:17:45.526Z,17.4
2022-08-22T07:19:01.769Z,17.5
2022-08-22T07:20:17.998Z,17.6
2022-08-22T07:21:34.236Z,17.6
2022-08-22T07:22:50.488Z,17.7
2022-08-22T07:24:06.730Z,17.8
2022-08-22T07:25:22.964Z,17.8
2022-08-22T07:26:39.201Z,17.9
2022-08-22T07:27:55.444Z,17.9
2022-08-22T07:29:11.683Z,17.9
2022-08-22T07:30:27.937Z,18
2022-08-22T07:33:00.398Z,18
2022-08-22T07:34:15.658Z,18.1
2022-08-22T07:35:31.904Z,18.1
2022-08-22T07:36:48.143Z,18.2
2022-08-22T07:38:04.385Z,18.2
2022-08-22T07:39:20.617Z,18.3
2022-08-22T07:40:36.856Z,18.3
2022-08-22T07:41:53.106Z,18.3
2022-08-22T07:43:09.345Z,18.4
2022-08-22T07:44:25.588Z,18.4
2022-08-22T07:45:41.827Z,18.5
2022-08-22T07:48:14.313Z,18.5
2022-08-22T07:49:30.536Z,18.6
2022-08-22T07:50:46.780Z,18.7
2022-08-22T07:53:18.274Z,18.7
2022-08-22T07:54:33.537Z,18.7
2022-08-22T07:55:48.793Z,18.8
2022-08-22T07:57:05.048Z,18.8
2022-08-22T07:58:21.274Z,18.8
2022-08-22T07:59:37.520Z,18.9
2022-08-22T08:00:53.758Z,18.9
2022-08-22T08:03:26.230Z,19
2022-08-22T08:04:42.482Z,19
2022-08-22T08:05:58.721Z,19
2022-08-22T08:07:14.956Z,19
2022-08-22T08:08:31.192Z,19.1
2022-08-22T08:11:03.678Z,19.1
2022-08-22T08:12:18.943Z,19.2
2022-08-22T08:13:34.198Z,19.3
2022-08-22T08:14:50.431Z,19.4
2022-08-22T08:16:06.668Z,19.4
2022-08-22T08:17:22.914Z,19.4
2022-08-22T08:18:39.155Z,19.4
2022-08-22T08:21:11.639Z,19.5
2022-08-22T08:22:27.882Z,19.6
2022-08-22T08:23:44.123Z,19.7
2022-08-22T08:26:16.597Z,19.7
2022-08-22T08:27:32.836Z,19.8
2022-08-22T08:28:49.083Z,19.8
2022-08-22T08:30:04.337Z,19.8
2022-08-22T08:31:20.570Z,19.9
2022-08-22T08:32:36.820Z,20
2022-08-22T08:33:53.056Z,20
2022-08-22T08:35:09.297Z,20
2022-08-22T08:36:25.525Z,20.1
2022-08-22T08:37:41.780Z,20.2
2022-08-22T08:38:58.009Z,20.3
2022-08-22T08:41:30.503Z,20.4
2022-08-22T08:42:46.745Z,20.5
2022-08-22T08:44:02.967Z,20.6
2022-08-22T08:45:19.221Z,20.6
2022-08-22T08:46:34.472Z,20.7
2022-08-22T08:47:50.712Z,20.8
2022-08-22T08:49:06.951Z,20.8
2022-08-22T08:50:23.189Z,20.8
2022-08-22T08:51:39.432Z,20.8
2022-08-22T08:52:54.691Z,20.9
2022-08-22T08:54:09.953Z,20.8
2022-08-22T08:55:26.194Z,20.8
2022-08-22T08:56:42.424Z,20.8
2022-08-22T08:57:58.663Z,20.8
2022-08-22T08:59:14.907Z,20.8
2022-08-22T09:00:31.152Z,20.8
2022-08-22T09:01:47.392Z,20.9
2022-08-22T09:04:19.857Z,21
2022-08-22T09:05:36.112Z,21.1
2022-08-22T09:06:52.351Z,21.1
2022-08-22T09:08:08.587Z,21.2
2022-08-22T09:09:24.822Z,21.3
2022-08-22T09:10:40.092Z,21.3
2022-08-22T09:11:56.311Z,21.3
2022-08-22T09:13:12.562Z,21.3
2022-08-22T09:14:28.807Z,21.3
2022-08-22T09:15:45.032Z,21.3
2022-08-22T09:17:01.288Z,21.2
2022-08-22T09:18:17.527Z,21.3
2022-08-22T09:19:33.762Z,21.3
2022-08-22T09:20:49.028Z,21.3
2022-08-22T09:22:04.282Z,21.4
2022-08-22T09:23:20.524Z,21.4
2022-08-22T09:24:36.754Z,21.5
2022-08-22T09:25:53.000Z,21.4
2022-08-22T09:27:09.249Z,21.5
2022-08-22T09:28:25.469Z,21.5
2022-08-22T09:29:41.730Z,21.5
2022-08-22T09:30:57.954Z,21.5
2022-08-22T09:32:14.191Z,21.5
2022-08-22T09:33:30.447Z,21.6
2022-08-22T09:34:46.674Z,21.6
2022-08-22T09:36:02.925Z,21.6
2022-08-22T09:37:19.151Z,21.6
2022-08-22T09:38:34.000Z,21.6
2022-08-22T09:39:50.645Z,21.7
2022-08-22T09:41:06.903Z,21.7
2022-08-22T09:42:23.130Z,21.7
2022-08-22T09:43:39.371Z,21.8
2022-08-22T09:44:55.607Z,21.8
2022-08-22T09:46:11.863Z,21.9
2022-08-22T09:47:28.105Z,22.1
2022-08-22T09:50:00.579Z,22.2
2022-08-22T09:51:16.816Z,22.3
2022-08-22T09:52:33.059Z,22.3
2022-08-22T09:53:49.297Z,22.4
2022-08-22T09:55:04.548Z,22.4
2022-08-22T09:56:20.000Z,22.4
2022-08-22T09:57:37.028Z,22.4
2022-08-22T09:58:53.284Z,22.4
2022-08-22T10:00:09.523Z,22.4
2022-08-22T10:01:25.760Z,22.4
2022-08-22T10:02:41.986Z,22.5
2022-08-22T10:03:58.225Z,22.6
2022-08-22T10:05:14.475Z,22.6
2022-08-22T10:06:30.721Z,22.7
2022-08-22T10:07:46.954Z,22.8
2022-08-22T10:09:03.191Z,22.8
2022-08-22T10:10:19.445Z,22.9
2022-08-22T10:11:34.684Z,23
2022-08-22T10:12:50.935Z,23.2
2022-08-22T10:14:07.166Z,23.3
2022-08-22T10:15:23.405Z,23.4
2022-08-22T10:16:39.647Z,23.4
2022-08-22T10:17:55.891Z,23.4
2022-08-22T10:19:12.124Z,23.4
2022-08-22T10:20:28.382Z,23.3
2022-08-22T10:21:44.621Z,23.3
2022-08-22T10:23:00.849Z,23.3
2022-08-22T10:24:17.092Z,23.3
2022-08-22T10:25:33.333Z,23.4
2022-08-22T10:26:49.585Z,23.4
2022-08-22T10:28:04.832Z,23.4
2022-08-22T10:29:21.079Z,23.4
2022-08-22T10:30:37.312Z,23.4
2022-08-22T10:31:53.550Z,23.4
2022-08-22T10:33:09.784Z,23.5
2022-08-22T10:34:26.034Z,23.5
2022-08-22T10:35:42.266Z,23.6
2022-08-22T10:36:58.506Z,23.6
2022-08-22T10:38:13.772Z,23.4
2022-08-22T10:39:30.007Z,23.4
2022-08-22T10:40:46.262Z,23.4
2022-08-22T10:42:02.499Z,23.4
2022-08-22T10:43:18.734Z,23.4
2022-08-22T10:44:34.974Z,23.4
2022-08-22T10:45:51.210Z,23.5
2022-08-22T10:47:07.452Z,23.7
2022-08-22T10:48:23.688Z,23.7
2022-08-22T10:50:56.183Z,23.9
2022-08-22T10:52:12.428Z,23.7
2022-08-22T10:53:28.650Z,23.7
2022-08-22T10:54:43.913Z,23.6
2022-08-22T10:56:00.155Z,23.7
2022-08-22T10:57:16.391Z,23.8
2022-08-22T10:58:32.646Z,23.9
2022-08-22T10:59:48.872Z,23.9
2022-08-22T11:01:05.127Z,23.8
2022-08-22T11:02:21.360Z,23.8
2022-08-22T11:03:37.607Z,23.8
2022-08-22T11:04:53.839Z,23.8
2022-08-22T11:06:10.074Z,23.9
2022-08-22T11:07:26.309Z,24
2022-08-22T11:08:42.555Z,24
2022-08-22T11:09:58.807Z,24
2022-08-22T11:11:15.046Z,23.9
2022-08-22T11:12:30.293Z,23.9
2022-08-22T11:13:46.534Z,23.9
2022-08-22T11:15:02.766Z,23.9
2022-08-22T11:16:19.014Z,24
2022-08-22T11:17:35.247Z,24.1
2022-08-22T11:18:51.491Z,24.2
2022-08-22T11:20:07.731Z,24.4
2022-08-22T11:21:23.000Z,24.4
2022-08-22T11:22:40.216Z,24.3
2022-08-22T11:23:56.456Z,24.1
2022-08-22T11:25:12.690Z,24.1
2022-08-22T11:26:28.945Z,24
2022-08-22T11:27:45.174Z,24
2022-08-22T11:29:00.444Z,24.1
2022-08-22T11:30:16.669Z,24.1
2022-08-22T11:31:32.908Z,24.1
2022-08-22T11:32:49.158Z,24.1
2022-08-22T11:34:05.401Z,24.1
2022-08-22T11:35:21.634Z,24.1
2022-08-22T11:36:37.881Z,24
2022-08-22T11:37:54.116Z,23.9
2022-08-22T11:39:10.348Z,23.7
2022-08-22T11:40:26.588Z,23.6
2022-08-22T11:41:42.837Z,23.6
2022-08-22T11:42:59.070Z,23.7
2022-08-22T11:44:15.311Z,23.7
2022-08-22T11:45:30.578Z,23.7
2022-08-22T11:46:46.811Z,23.7
2022-08-22T11:48:03.060Z,23.6
2022-08-22T11:49:19.304Z,23.6
2022-08-22T11:50:35.535Z,23.6
2022-08-22T11:51:51.766Z,23.6
2022-08-22T11:53:08.011Z,23.6
2022-08-22T11:54:24.255Z,23.6
2022-08-22T11:55:40.490Z,23.7
2022-08-22T11:56:56.726Z,23.6
2022-08-22T11:58:12.975Z,23.6
2022-08-22T11:59:29.212Z,23.6
2022-08-22T12:00:45.451Z,23.6
2022-08-22T12:02:00.719Z,23.6
2022-08-22T12:03:16.950Z,23.6
2022-08-22T12:04:33.198Z,23.5
2022-08-22T12:07:05.669Z,23.5
2022-08-22T12:09:38.163Z,23.5
2022-08-22T12:10:54.394Z,23.5
2022-08-22T12:12:10.644Z,23.5
2022-08-22T12:13:26.885Z,23.6
2022-08-22T12:14:43.107Z,23.6
2022-08-22T12:15:59.347Z,23.7
2022-08-22T12:17:15.585Z,23.8
2022-08-22T12:18:30.844Z,23.8
2022-08-22T12:19:47.086Z,23.9
2022-08-22T12:21:03.323Z,23.9
2022-08-22T12:27:24.523Z,23.9
2022-08-22T12:28:39.801Z,23.9
2022-08-22T12:29:55.045Z,23.9
2022-08-22T12:33:43.773Z,23.9
2022-08-22T12:35:00.005Z,23.9
2022-08-22T12:37:32.494Z,23.9
2022-08-22T12:38:48.736Z,24
2022-08-22T12:40:04.969Z,24
2022-08-22T12:41:21.217Z,23.9
2022-08-22T12:42:37.452Z,24
2022-08-22T12:43:53.704Z,24
2022-08-22T12:45:09.936Z,24.1
2022-08-22T12:46:25.203Z,24.2
2022-08-22T12:47:40.461Z,24.2
2022-08-22T12:48:56.696Z,24.2
2022-08-22T12:50:12.925Z,24.1
2022-08-22T12:51:29.163Z,24.1
2022-08-22T12:52:45.408Z,24.1
2022-08-22T12:54:01.643Z,24.1
2022-08-22T12:55:17.898Z,24
2022-08-22T12:56:34.134Z,24.1
2022-08-22T12:57:50.382Z,24.1
2022-08-22T12:59:06.618Z,24.2
2022-08-22T13:00:21.876Z,24.2
2022-08-22T13:01:37.137Z,24.3
2022-08-22T13:02:53.383Z,24.3
2022-08-22T13:04:09.603Z,24.3
2022-08-22T13:05:25.857Z,24.3
2022-08-22T13:06:42.097Z,24.3
2022-08-22T13:07:58.341Z,24.3
2022-08-22T13:09:14.572Z,24.3
2022-08-22T13:10:30.822Z,24.3
2022-08-22T13:11:47.047Z,24.5
2022-08-22T13:13:03.287Z,24.5
2022-08-22T13:14:19.524Z,24.5
2022-08-22T13:15:34.787Z,24.4
2022-08-22T13:16:50.063Z,24.3
2022-08-22T13:18:06.297Z,24.2
2022-08-22T13:19:22.529Z,24.2
2022-08-22T13:21:55.023Z,24.1
2022-08-22T13:23:11.255Z,24.1
2022-08-22T13:24:27.501Z,24.1
2022-08-22T13:25:43.737Z,24.1
2022-08-22T13:26:59.984Z,24.2
2022-08-22T13:28:16.217Z,24.2
2022-08-22T13:29:32.445Z,24.2
2022-08-22T13:30:48.685Z,24.2
2022-08-22T13:32:04.927Z,24.2
2022-08-22T13:33:20.191Z,24.1
2022-08-22T13:34:36.431Z,24.1
2022-08-22T13:35:52.664Z,24.1
2022-08-22T13:37:08.916Z,24.1
2022-08-22T13:38:25.154Z,24.1
2022-08-22T13:39:41.392Z,24.1
2022-08-22T13:40:57.644Z,24.1
2022-08-22T13:42:13.879Z,24.1
2022-08-22T13:43:30.126Z,24
2022-08-22T13:44:46.356Z,24
2022-08-22T13:46:02.600Z,24
2022-08-22T13:48:35.081Z,23.9
2022-08-22T13:49:50.322Z,23.9
2022-08-22T13:51:06.575Z,24
2022-08-22T13:52:22.822Z,24
2022-08-22T13:53:39.054Z,24
2022-08-22T13:54:55.299Z,24.1
2022-08-22T13:56:11.534Z,24.1
2022-08-22T13:57:27.779Z,24.1
2022-08-22T13:58:44.025Z,24
2022-08-22T14:00:00.251Z,24
2022-08-22T14:01:16.487Z,24
2022-08-22T14:02:32.729Z,24
2022-08-22T14:03:48.969Z,24
2022-08-22T14:05:05.222Z,23.9
2022-08-22T14:06:20.481Z,24
2022-08-22T14:08:52.950Z,23.8
2022-08-22T14:10:09.193Z,23.9
2022-08-22T14:11:25.435Z,23.8
2022-08-22T14:12:41.667Z,23.8
2022-08-22T14:13:57.923Z,23.8
2022-08-22T14:15:14.144Z,23.8
2022-08-22T14:16:30.403Z,23.7
2022-08-22T14:17:46.625Z,23.8
2022-08-22T14:19:02.878Z,23.8
2022-08-22T14:20:19.120Z,23.8
2022-08-22T14:21:35.362Z,23.8
2022-08-22T14:24:06.843Z,23.8
2022-08-22T14:25:23.098Z,23.8
2022-08-22T14:26:39.334Z,23.9
2022-08-22T14:27:55.565Z,23.9
2022-08-22T14:29:11.813Z,23.9
2022-08-22T14:31:44.291Z,23.9
2022-08-22T14:32:59.563Z,23.9
2022-08-22T14:34:14.814Z,23.9
2022-08-22T14:35:31.053Z,23.9
2022-08-22T14:36:47.293Z,23.9
2022-08-22T14:38:03.527Z,23.9
2022-08-22T14:39:19.775Z,23.9
2022-08-22T14:40:35.990Z,23.9
2022-08-22T14:41:52.247Z,23.9
2022-08-22T14:43:08.477Z,23.9
2022-08-22T14:44:24.730Z,23.9
2022-08-22T14:45:40.958Z,23.9
2022-08-22T14:46:56.214Z,23.9
2022-08-22T14:48:11.477Z,23.9
2022-08-22T14:49:27.712Z,23.9
2022-08-22T14:50:43.968Z,23.9
2022-08-22T14:52:00.208Z,23.9
2022-08-22T14:54:31.708Z,23.9
2022-08-22T14:55:46.955Z,23.9
2022-08-22T14:57:03.199Z,23.9
2022-08-22T14:58:19.432Z,23.9
2022-08-22T14:59:35.689Z,23.9
2022-08-22T15:02:08.158Z,23.9
2022-08-22T15:03:24.400Z,23.8
2022-08-22T15:04:39.671Z,23.8
2022-08-22T15:05:54.910Z,23.7
2022-08-22T15:07:11.159Z,23.7
2022-08-22T15:08:27.403Z,23.7
2022-08-22T15:09:43.648Z,23.7
2022-08-22T15:10:59.880Z,23.7
2022-08-22T15:12:16.126Z,23.7
2022-08-22T15:13:32.371Z,23.7
2022-08-22T15:14:48.610Z,23.7
2022-08-22T15:16:04.844Z,23.7
2022-08-22T15:17:21.080Z,23.7
2022-08-22T15:18:36.339Z,23.7
2022-08-22T15:19:51.597Z,23.6
2022-08-22T15:21:07.831Z,23.6
2022-08-22T15:22:24.078Z,23.6
2022-08-22T15:23:40.316Z,23.6
2022-08-22T15:24:56.570Z,23.6
2022-08-22T15:27:29.041Z,23.5
2022-08-22T15:28:45.281Z,23.6
2022-08-22T15:30:01.528Z,23.5
2022-08-22T15:31:17.763Z,23.5
2022-08-22T15:32:34.006Z,23.5
2022-08-22T15:33:50.252Z,23.4
2022-08-22T15:35:06.480Z,23.4
2022-08-22T15:36:21.732Z,23.4
2022-08-22T15:37:37.973Z,23.4
2022-08-22T15:40:10.464Z,23.4
2022-08-22T15:41:25.726Z,23.4
2022-08-22T15:42:40.980Z,23.3
2022-08-22T15:43:57.000Z,23.3
2022-08-22T15:45:13.456Z,23.3
2022-08-22T15:47:45.937Z,23.2
2022-08-22T15:49:02.177Z,23.2
2022-08-22T15:50:18.416Z,23.1
2022-08-22T15:51:34.651Z,23.1
2022-08-22T15:52:50.906Z,23.1
2022-08-22T15:54:07.141Z,23.1
2022-08-22T15:55:23.377Z,23
2022-08-22T15:56:39.619Z,23
2022-08-22T15:57:55.863Z,23
2022-08-22T15:59:11.120Z,22.9
2022-08-22T16:00:27.363Z,22.9
2022-08-22T16:02:59.843Z,22.9
2022-08-22T16:04:15.103Z,22.8
2022-08-22T16:05:30.364Z,22.8
2022-08-22T16:06:46.603Z,22.8
2022-08-22T16:08:02.846Z,22.8
2022-08-22T16:10:35.310Z,22.8
2022-08-22T16:11:51.562Z,22.8
2022-08-22T16:13:07.793Z,22.8
2022-08-22T16:14:24.032Z,22.8
2022-08-22T16:15:40.275Z,22.8
2022-08-22T16:18:12.765Z,22.8
2022-08-22T16:20:45.243Z,22.8
2022-08-22T16:22:00.484Z,22.8
2022-08-22T16:23:16.724Z,22.8
2022-08-22T16:24:32.967Z,22.8
2022-08-22T16:25:49.223Z,22.8
2022-08-22T16:27:05.462Z,22.8
2022-08-22T16:28:21.696Z,22.7
2022-08-22T16:29:37.933Z,22.7
2022-08-22T16:30:54.182Z,22.7
2022-08-22T16:33:26.658Z,22.6
2022-08-22T16:34:42.890Z,22.6
2022-08-22T16:35:59.127Z,22.5
2022-08-22T16:37:15.367Z,22.5
2022-08-22T16:38:30.629Z,22.4
2022-08-22T16:39:46.860Z,22.4
2022-08-22T16:41:03.104Z,22.4
2022-08-22T16:42:19.360Z,22.3
2022-08-22T16:43:35.599Z,22.3
2022-08-22T16:44:51.837Z,22.3
2022-08-22T16:46:08.080Z,22.3
2022-08-22T16:47:23.342Z,22.2
2022-08-22T16:48:39.571Z,22.3
2022-08-22T16:49:54.835Z,22.2
2022-08-22T16:51:11.063Z,22.2
2022-08-22T16:52:27.305Z,22.1
2022-08-22T16:53:43.549Z,22.1
2022-08-22T16:54:59.793Z,22.1
2022-08-22T16:56:16.035Z,22.1
2022-08-22T16:57:32.265Z,22
2022-08-22T16:58:48.509Z,22
2022-08-22T17:00:04.747Z,22
2022-08-22T17:01:20.022Z,22
2022-08-22T17:02:35.274Z,21.9
2022-08-22T17:03:51.509Z,21.9
2022-08-22T17:05:07.751Z,21.9
2022-08-22T17:06:23.993Z,21.8
2022-08-22T17:07:40.229Z,21.8
2022-08-22T17:08:56.472Z,21.8
2022-08-22T17:10:12.704Z,21.8
2022-08-22T17:11:28.946Z,21.7
2022-08-22T17:12:45.187Z,21.7
2022-08-22T17:14:01.428Z,21.7
2022-08-22T17:15:17.664Z,21.7
2022-08-22T17:16:33.899Z,21.7
2022-08-22T17:17:50.152Z,21.6
2022-08-22T17:19:05.415Z,21.6
2022-08-22T17:20:21.637Z,21.5
2022-08-22T17:21:37.886Z,21.5
2022-08-22T17:22:54.133Z,21.5
2022-08-22T17:24:10.372Z,21.4
2022-08-22T17:25:26.596Z,21.3
2022-08-22T17:26:42.845Z,21.4
2022-08-22T17:27:59.082Z,21.3
2022-08-22T17:29:15.334Z,21.3
2022-08-22T17:30:31.563Z,21.2
2022-08-22T17:31:47.804Z,21.1
2022-08-22T17:33:04.052Z,21
2022-08-22T17:34:20.289Z,21
2022-08-22T17:35:35.540Z,20.9
2022-08-22T17:36:51.790Z,20.9
2022-08-22T17:38:08.021Z,20.8
2022-08-22T17:39:24.268Z,20.8
2022-08-22T17:40:40.499Z,20.7
2022-08-22T17:41:56.742Z,20.7
2022-08-22T17:43:12.984Z,20.6
2022-08-22T17:44:29.233Z,20.6
2022-08-22T17:45:45.472Z,20.6
2022-08-22T17:47:01.699Z,20.5
2022-08-22T17:49:34.193Z,20.4
2022-08-22T17:50:50.421Z,20.4
2022-08-22T17:52:05.688Z,20.4
2022-08-22T17:53:21.914Z,20.4
2022-08-22T17:54:38.160Z,20.3
2022-08-22T17:55:54.412Z,20.4
2022-08-22T17:57:10.646Z,20.4
2022-08-22T17:58:26.877Z,20.5
2022-08-22T17:59:43.128Z,20.6
2022-08-22T18:00:59.359Z,20.6
2022-08-22T18:02:15.596Z,20.7
2022-08-22T18:03:31.842Z,20.7
2022-08-22T18:04:48.075Z,20.7
2022-08-22T18:06:04.315Z,20.7
2022-08-22T18:07:20.555Z,20.6
2022-08-22T18:08:35.811Z,20.6
2022-08-22T18:09:52.065Z,20.6
2022-08-22T18:12:24.540Z,20.6
2022-08-22T18:14:57.029Z,20.6
2022-08-22T18:16:12.290Z,20.6
2022-08-22T18:17:27.544Z,20.6
2022-08-22T18:18:43.779Z,20.6
2022-08-22T18:20:00.017Z,20.6
2022-08-22T18:21:16.263Z,20.6
2022-08-22T18:22:32.492Z,20.6